sensor_id;sensor_type;location;lat;lon;timestamp;P1;durP1;ratioP1;P2;durP2;ratioP2
10471;SDS011;5283;48.876;8.962;2023-03-05T00:02:03;21.30;;;12.13;;
10471;SDS011;5283;48.876;8.962;2023-03-05T00:04:31;22.43;;;12.27;;
10471;SDS011;5283;48.876;8.962;2023-03-05T00:06:58;21.47;;;12.23;;
10471;SDS011;5283;48.876;8.962;2023-03-05T00:09:25;24.77;;;13.00;;
10471;SDS011;5283;48.876;8.962;2023-03-05T00:11:52;21.63;;;12.77;;
10471;SDS011;5283;48.876;8.962;2023-03-05T00:14:18;22.17;;;13.43;;
10471;SDS011;5283;48.876;8.962;2023-03-05T00:16:45;20.70;;;12.30;;
10471;SDS011;5283;48.876;8.962;2023-03-05T00:19:12;19.97;;;12.10;;
10471;SDS011;5283;48.876;8.962;2023-03-05T00:21:40;20.23;;;11.90;;
10471;SDS011;5283;48.876;8.962;2023-03-05T00:24:09;23.40;;;12.70;;
10471;SDS011;5283;48.876;8.962;2023-03-05T00:26:38;20.77;;;11.60;;
10471;SDS011;5283;48.876;8.962;2023-03-05T00:29:06;23.67;;;13.07;;
10471;SDS011;5283;48.876;8.962;2023-03-05T00:31:34;21.33;;;13.17;;
10471;SDS011;5283;48.876;8.962;2023-03-05T00:34:03;23.00;;;13.03;;
10471;SDS011;5283;48.876;8.962;2023-03-05T00:36:33;20.67;;;12.67;;
10471;SDS011;5283;48.876;8.962;2023-03-05T00:39:00;20.37;;;12.00;;
10471;SDS011;5283;48.876;8.962;2023-03-05T00:41:26;20.00;;;12.00;;
10471;SDS011;5283;48.876;8.962;2023-03-05T00:43:53;20.83;;;11.37;;
10471;SDS011;5283;48.876;8.962;2023-03-05T00:46:21;19.90;;;12.47;;
10471;SDS011;5283;48.876;8.962;2023-03-05T00:48:48;18.00;;;11.73;;
10471;SDS011;5283;48.876;8.962;2023-03-05T00:51:15;21.00;;;12.67;;
10471;SDS011;5283;48.876;8.962;2023-03-05T00:53:42;20.77;;;14.27;;
10471;SDS011;5283;48.876;8.962;2023-03-05T00:56:08;23.77;;;15.73;;
10471;SDS011;5283;48.876;8.962;2023-03-05T00:58:35;21.87;;;14.73;;
10471;SDS011;5283;48.876;8.962;2023-03-05T01:01:02;19.83;;;13.30;;
10471;SDS011;5283;48.876;8.962;2023-03-05T01:03:31;18.73;;;11.50;;
10471;SDS011;5283;48.876;8.962;2023-03-05T01:05:59;20.23;;;11.13;;
10471;SDS011;5283;48.876;8.962;2023-03-05T01:08:28;18.80;;;11.77;;
10471;SDS011;5283;48.876;8.962;2023-03-05T01:10:55;18.90;;;11.30;;
10471;SDS011;5283;48.876;8.962;2023-03-05T01:13:22;19.07;;;11.83;;
10471;SDS011;5283;48.876;8.962;2023-03-05T01:15:49;19.40;;;11.50;;
10471;SDS011;5283;48.876;8.962;2023-03-05T01:18:17;21.47;;;12.10;;
10471;SDS011;5283;48.876;8.962;2023-03-05T01:20:44;19.63;;;11.83;;
10471;SDS011;5283;48.876;8.962;2023-03-05T01:23:11;23.40;;;12.33;;
10471;SDS011;5283;48.876;8.962;2023-03-05T01:25:38;21.13;;;12.07;;
10471;SDS011;5283;48.876;8.962;2023-03-05T01:28:05;18.87;;;10.77;;
10471;SDS011;5283;48.876;8.962;2023-03-05T01:30:33;19.63;;;11.77;;
10471;SDS011;5283;48.876;8.962;2023-03-05T01:32:59;22.40;;;11.53;;
10471;SDS011;5283;48.876;8.962;2023-03-05T01:35:27;18.93;;;10.97;;
10471;SDS011;5283;48.876;8.962;2023-03-05T01:37:54;19.00;;;11.53;;
10471;SDS011;5283;48.876;8.962;2023-03-05T01:40:25;18.37;;;10.63;;
10471;SDS011;5283;48.876;8.962;2023-03-05T01:43:05;18.00;;;10.50;;
10471;SDS011;5283;48.876;8.962;2023-03-05T01:45:34;17.20;;;10.67;;
10471;SDS011;5283;48.876;8.962;2023-03-05T01:48:06;18.30;;;11.07;;
10471;SDS011;5283;48.876;8.962;2023-03-05T01:50:32;20.97;;;10.90;;
10471;SDS011;5283;48.876;8.962;2023-03-05T01:53:03;20.30;;;10.23;;
10471;SDS011;5283;48.876;8.962;2023-03-05T01:55:32;22.07;;;9.97;;
10471;SDS011;5283;48.876;8.962;2023-03-05T01:58:01;22.33;;;11.27;;
10471;SDS011;5283;48.876;8.962;2023-03-05T02:00:34;18.97;;;10.23;;
10471;SDS011;5283;48.876;8.962;2023-03-05T02:03:06;19.80;;;10.33;;
10471;SDS011;5283;48.876;8.962;2023-03-05T02:05:38;14.80;;;9.27;;
10471;SDS011;5283;48.876;8.962;2023-03-05T02:08:10;19.07;;;9.27;;
10471;SDS011;5283;48.876;8.962;2023-03-05T02:10:43;16.10;;;9.27;;
10471;SDS011;5283;48.876;8.962;2023-03-05T02:13:13;20.30;;;10.30;;
10471;SDS011;5283;48.876;8.962;2023-03-05T02:16:00;18.70;;;10.53;;
10471;SDS011;5283;48.876;8.962;2023-03-05T02:18:27;19.63;;;9.87;;
10471;SDS011;5283;48.876;8.962;2023-03-05T02:23:28;17.83;;;10.50;;
10471;SDS011;5283;48.876;8.962;2023-03-05T02:25:58;19.63;;;10.40;;
10471;SDS011;5283;48.876;8.962;2023-03-05T02:28:45;18.83;;;10.50;;
10471;SDS011;5283;48.876;8.962;2023-03-05T02:31:19;18.30;;;9.93;;
10471;SDS011;5283;48.876;8.962;2023-03-05T02:33:48;20.03;;;10.70;;
10471;SDS011;5283;48.876;8.962;2023-03-05T02:36:15;25.33;;;10.70;;
10471;SDS011;5283;48.876;8.962;2023-03-05T02:38:42;19.10;;;10.83;;
10471;SDS011;5283;48.876;8.962;2023-03-05T02:41:10;20.07;;;10.80;;
10471;SDS011;5283;48.876;8.962;2023-03-05T02:43:36;24.33;;;10.63;;
10471;SDS011;5283;48.876;8.962;2023-03-05T02:46:03;25.27;;;11.10;;
10471;SDS011;5283;48.876;8.962;2023-03-05T02:48:30;23.17;;;11.60;;
10471;SDS011;5283;48.876;8.962;2023-03-05T02:50:57;20.80;;;10.80;;
10471;SDS011;5283;48.876;8.962;2023-03-05T02:53:25;23.73;;;11.60;;
10471;SDS011;5283;48.876;8.962;2023-03-05T02:55:51;22.17;;;11.17;;
10471;SDS011;5283;48.876;8.962;2023-03-05T02:58:18;21.00;;;11.03;;
10471;SDS011;5283;48.876;8.962;2023-03-05T03:00:45;19.23;;;10.83;;
10471;SDS011;5283;48.876;8.962;2023-03-05T03:03:14;18.67;;;9.80;;
10471;SDS011;5283;48.876;8.962;2023-03-05T03:05:41;19.17;;;10.47;;
10471;SDS011;5283;48.876;8.962;2023-03-05T03:08:08;21.77;;;11.23;;
10471;SDS011;5283;48.876;8.962;2023-03-05T03:10:35;21.03;;;10.43;;
10471;SDS011;5283;48.876;8.962;2023-03-05T03:13:02;22.87;;;10.83;;
10471;SDS011;5283;48.876;8.962;2023-03-05T03:15:29;23.43;;;10.73;;
10471;SDS011;5283;48.876;8.962;2023-03-05T03:17:55;21.40;;;10.43;;
10471;SDS011;5283;48.876;8.962;2023-03-05T03:20:22;22.27;;;10.67;;
10471;SDS011;5283;48.876;8.962;2023-03-05T03:22:49;20.70;;;11.10;;
10471;SDS011;5283;48.876;8.962;2023-03-05T03:25:17;21.63;;;11.07;;
10471;SDS011;5283;48.876;8.962;2023-03-05T03:27:46;22.90;;;10.83;;
10471;SDS011;5283;48.876;8.962;2023-03-05T03:30:13;25.67;;;10.97;;
10471;SDS011;5283;48.876;8.962;2023-03-05T03:32:40;21.17;;;10.97;;
10471;SDS011;5283;48.876;8.962;2023-03-05T03:35:07;21.30;;;10.53;;
10471;SDS011;5283;48.876;8.962;2023-03-05T03:37:34;19.07;;;9.90;;
10471;SDS011;5283;48.876;8.962;2023-03-05T03:40:02;19.23;;;10.53;;
10471;SDS011;5283;48.876;8.962;2023-03-05T03:42:30;23.47;;;10.73;;
10471;SDS011;5283;48.876;8.962;2023-03-05T03:44:57;23.73;;;10.93;;
10471;SDS011;5283;48.876;8.962;2023-03-05T03:47:25;20.87;;;11.20;;
10471;SDS011;5283;48.876;8.962;2023-03-05T03:49:53;19.70;;;10.67;;
10471;SDS011;5283;48.876;8.962;2023-03-05T03:52:20;22.27;;;10.87;;
10471;SDS011;5283;48.876;8.962;2023-03-05T03:54:48;20.50;;;11.60;;
10471;SDS011;5283;48.876;8.962;2023-03-05T03:57:17;21.17;;;10.70;;
10471;SDS011;5283;48.876;8.962;2023-03-05T03:59:44;22.27;;;10.80;;
10471;SDS011;5283;48.876;8.962;2023-03-05T04:02:11;22.23;;;10.60;;
10471;SDS011;5283;48.876;8.962;2023-03-05T04:04:37;21.83;;;10.93;;
10471;SDS011;5283;48.876;8.962;2023-03-05T04:07:04;19.43;;;10.77;;
10471;SDS011;5283;48.876;8.962;2023-03-05T04:09:31;23.23;;;10.83;;
10471;SDS011;5283;48.876;8.962;2023-03-05T04:11:58;20.00;;;10.27;;
10471;SDS011;5283;48.876;8.962;2023-03-05T04:14:24;20.77;;;10.60;;
10471;SDS011;5283;48.876;8.962;2023-03-05T04:16:52;21.07;;;10.90;;
10471;SDS011;5283;48.876;8.962;2023-03-05T04:19:19;22.53;;;10.63;;
10471;SDS011;5283;48.876;8.962;2023-03-05T04:21:45;19.93;;;10.33;;
10471;SDS011;5283;48.876;8.962;2023-03-05T04:24:12;22.10;;;10.93;;
10471;SDS011;5283;48.876;8.962;2023-03-05T04:26:39;19.90;;;10.17;;
10471;SDS011;5283;48.876;8.962;2023-03-05T04:29:06;18.70;;;10.10;;
10471;SDS011;5283;48.876;8.962;2023-03-05T04:31:32;21.47;;;11.47;;
10471;SDS011;5283;48.876;8.962;2023-03-05T04:33:59;20.17;;;11.00;;
10471;SDS011;5283;48.876;8.962;2023-03-05T04:36:26;19.00;;;11.03;;
10471;SDS011;5283;48.876;8.962;2023-03-05T04:38:52;23.57;;;11.47;;
10471;SDS011;5283;48.876;8.962;2023-03-05T04:41:19;19.53;;;10.80;;
10471;SDS011;5283;48.876;8.962;2023-03-05T04:43:45;18.37;;;10.77;;
10471;SDS011;5283;48.876;8.962;2023-03-05T04:46:12;20.00;;;10.67;;
10471;SDS011;5283;48.876;8.962;2023-03-05T04:48:39;24.53;;;12.20;;
10471;SDS011;5283;48.876;8.962;2023-03-05T04:51:05;22.23;;;11.57;;
10471;SDS011;5283;48.876;8.962;2023-03-05T04:53:32;20.33;;;10.77;;
10471;SDS011;5283;48.876;8.962;2023-03-05T04:55:59;21.20;;;11.40;;
10471;SDS011;5283;48.876;8.962;2023-03-05T04:58:26;21.77;;;11.40;;
10471;SDS011;5283;48.876;8.962;2023-03-05T05:00:53;24.27;;;12.43;;
10471;SDS011;5283;48.876;8.962;2023-03-05T05:03:25;19.80;;;11.90;;
10471;SDS011;5283;48.876;8.962;2023-03-05T05:05:55;21.17;;;11.70;;
10471;SDS011;5283;48.876;8.962;2023-03-05T05:08:23;22.67;;;12.37;;
10471;SDS011;5283;48.876;8.962;2023-03-05T05:11:03;21.97;;;12.40;;
10471;SDS011;5283;48.876;8.962;2023-03-05T05:13:31;22.60;;;11.50;;
10471;SDS011;5283;48.876;8.962;2023-03-05T05:15:58;26.10;;;12.90;;
10471;SDS011;5283;48.876;8.962;2023-03-05T05:18:25;20.80;;;11.57;;
10471;SDS011;5283;48.876;8.962;2023-03-05T05:20:52;20.47;;;11.50;;
10471;SDS011;5283;48.876;8.962;2023-03-05T05:23:19;22.13;;;11.33;;
10471;SDS011;5283;48.876;8.962;2023-03-05T05:25:54;23.17;;;12.60;;
10471;SDS011;5283;48.876;8.962;2023-03-05T05:28:24;18.67;;;10.70;;
10471;SDS011;5283;48.876;8.962;2023-03-05T05:30:51;19.30;;;12.07;;
10471;SDS011;5283;48.876;8.962;2023-03-05T05:33:18;20.73;;;11.03;;
10471;SDS011;5283;48.876;8.962;2023-03-05T05:35:45;22.83;;;11.20;;
10471;SDS011;5283;48.876;8.962;2023-03-05T05:38:12;21.83;;;11.97;;
10471;SDS011;5283;48.876;8.962;2023-03-05T05:40:39;22.40;;;11.90;;
10471;SDS011;5283;48.876;8.962;2023-03-05T05:43:06;21.80;;;10.90;;
10471;SDS011;5283;48.876;8.962;2023-03-05T05:45:36;22.37;;;11.20;;
10471;SDS011;5283;48.876;8.962;2023-03-05T05:48:03;23.50;;;11.27;;
10471;SDS011;5283;48.876;8.962;2023-03-05T05:50:30;21.40;;;11.63;;
10471;SDS011;5283;48.876;8.962;2023-03-05T05:52:57;20.03;;;11.37;;
10471;SDS011;5283;48.876;8.962;2023-03-05T05:55:23;20.17;;;12.27;;
10471;SDS011;5283;48.876;8.962;2023-03-05T05:57:50;22.00;;;11.90;;
10471;SDS011;5283;48.876;8.962;2023-03-05T06:00:17;22.13;;;11.57;;
10471;SDS011;5283;48.876;8.962;2023-03-05T06:02:44;20.47;;;10.90;;
10471;SDS011;5283;48.876;8.962;2023-03-05T06:05:11;19.50;;;11.20;;
10471;SDS011;5283;48.876;8.962;2023-03-05T06:07:40;23.50;;;11.73;;
10471;SDS011;5283;48.876;8.962;2023-03-05T06:10:07;22.70;;;11.97;;
10471;SDS011;5283;48.876;8.962;2023-03-05T06:12:35;23.10;;;12.53;;
10471;SDS011;5283;48.876;8.962;2023-03-05T06:15:01;21.03;;;12.70;;
10471;SDS011;5283;48.876;8.962;2023-03-05T06:17:28;22.03;;;11.90;;
10471;SDS011;5283;48.876;8.962;2023-03-05T06:19:56;23.07;;;11.93;;
10471;SDS011;5283;48.876;8.962;2023-03-05T06:22:23;25.10;;;12.63;;
10471;SDS011;5283;48.876;8.962;2023-03-05T06:24:50;21.03;;;12.63;;
10471;SDS011;5283;48.876;8.962;2023-03-05T06:27:17;23.90;;;12.17;;
10471;SDS011;5283;48.876;8.962;2023-03-05T06:29:43;24.23;;;13.00;;
10471;SDS011;5283;48.876;8.962;2023-03-05T06:32:10;22.77;;;11.83;;
10471;SDS011;5283;48.876;8.962;2023-03-05T06:34:37;20.97;;;12.43;;
10471;SDS011;5283;48.876;8.962;2023-03-05T06:37:04;23.20;;;12.53;;
10471;SDS011;5283;48.876;8.962;2023-03-05T06:39:30;23.13;;;12.77;;
10471;SDS011;5283;48.876;8.962;2023-03-05T06:41:57;23.30;;;11.77;;
10471;SDS011;5283;48.876;8.962;2023-03-05T06:44:24;26.67;;;12.43;;
10471;SDS011;5283;48.876;8.962;2023-03-05T06:46:51;23.13;;;12.33;;
10471;SDS011;5283;48.876;8.962;2023-03-05T06:49:17;23.23;;;13.93;;
10471;SDS011;5283;48.876;8.962;2023-03-05T06:51:44;22.80;;;12.70;;
10471;SDS011;5283;48.876;8.962;2023-03-05T06:54:12;24.87;;;13.87;;
10471;SDS011;5283;48.876;8.962;2023-03-05T06:56:41;22.90;;;12.47;;
10471;SDS011;5283;48.876;8.962;2023-03-05T06:59:10;21.97;;;12.03;;
10471;SDS011;5283;48.876;8.962;2023-03-05T07:01:39;22.90;;;12.10;;
10471;SDS011;5283;48.876;8.962;2023-03-05T07:04:05;21.97;;;12.03;;
10471;SDS011;5283;48.876;8.962;2023-03-05T07:06:33;24.83;;;12.93;;
10471;SDS011;5283;48.876;8.962;2023-03-05T07:09:02;23.43;;;12.33;;
10471;SDS011;5283;48.876;8.962;2023-03-05T07:11:30;22.13;;;12.43;;
10471;SDS011;5283;48.876;8.962;2023-03-05T07:13:57;20.83;;;12.00;;
10471;SDS011;5283;48.876;8.962;2023-03-05T07:16:25;20.50;;;12.53;;
10471;SDS011;5283;48.876;8.962;2023-03-05T07:18:54;24.17;;;13.13;;
10471;SDS011;5283;48.876;8.962;2023-03-05T07:21:23;21.50;;;11.93;;
10471;SDS011;5283;48.876;8.962;2023-03-05T07:23:52;20.87;;;11.70;;
10471;SDS011;5283;48.876;8.962;2023-03-05T07:26:20;20.70;;;11.33;;
10471;SDS011;5283;48.876;8.962;2023-03-05T07:28:47;17.90;;;10.80;;
10471;SDS011;5283;48.876;8.962;2023-03-05T07:31:15;18.37;;;11.30;;
10471;SDS011;5283;48.876;8.962;2023-03-05T07:33:49;23.10;;;10.83;;
10471;SDS011;5283;48.876;8.962;2023-03-05T07:36:16;20.17;;;10.40;;
10471;SDS011;5283;48.876;8.962;2023-03-05T07:38:43;22.63;;;11.93;;
10471;SDS011;5283;48.876;8.962;2023-03-05T07:41:11;18.83;;;11.90;;
10471;SDS011;5283;48.876;8.962;2023-03-05T07:43:39;21.17;;;12.33;;
10471;SDS011;5283;48.876;8.962;2023-03-05T07:46:07;21.93;;;13.83;;
10471;SDS011;5283;48.876;8.962;2023-03-05T07:48:35;22.50;;;15.97;;
10471;SDS011;5283;48.876;8.962;2023-03-05T07:51:03;23.07;;;13.80;;
10471;SDS011;5283;48.876;8.962;2023-03-05T07:53:31;22.43;;;13.03;;
10471;SDS011;5283;48.876;8.962;2023-03-05T07:55:58;20.73;;;11.70;;
10471;SDS011;5283;48.876;8.962;2023-03-05T07:58:25;18.93;;;12.37;;
10471;SDS011;5283;48.876;8.962;2023-03-05T08:00:52;19.90;;;11.43;;
10471;SDS011;5283;48.876;8.962;2023-03-05T08:03:18;18.67;;;11.13;;
10471;SDS011;5283;48.876;8.962;2023-03-05T08:05:45;20.27;;;10.87;;
10471;SDS011;5283;48.876;8.962;2023-03-05T08:08:12;19.77;;;11.10;;
10471;SDS011;5283;48.876;8.962;2023-03-05T08:10:39;18.77;;;11.23;;
10471;SDS011;5283;48.876;8.962;2023-03-05T08:13:06;21.57;;;12.13;;
10471;SDS011;5283;48.876;8.962;2023-03-05T08:15:33;17.33;;;11.00;;
10471;SDS011;5283;48.876;8.962;2023-03-05T08:18:02;18.67;;;11.50;;
10471;SDS011;5283;48.876;8.962;2023-03-05T08:20:29;20.80;;;12.10;;
10471;SDS011;5283;48.876;8.962;2023-03-05T08:22:56;20.33;;;11.50;;
10471;SDS011;5283;48.876;8.962;2023-03-05T08:25:23;18.37;;;10.60;;
10471;SDS011;5283;48.876;8.962;2023-03-05T08:27:49;19.90;;;10.80;;
10471;SDS011;5283;48.876;8.962;2023-03-05T08:30:17;18.67;;;11.37;;
10471;SDS011;5283;48.876;8.962;2023-03-05T08:32:50;19.47;;;11.53;;
10471;SDS011;5283;48.876;8.962;2023-03-05T08:35:17;19.37;;;10.70;;
10471;SDS011;5283;48.876;8.962;2023-03-05T08:37:43;16.13;;;10.43;;
10471;SDS011;5283;48.876;8.962;2023-03-05T08:40:10;18.70;;;10.70;;
10471;SDS011;5283;48.876;8.962;2023-03-05T08:42:37;19.53;;;10.93;;
10471;SDS011;5283;48.876;8.962;2023-03-05T08:45:04;21.43;;;11.33;;
10471;SDS011;5283;48.876;8.962;2023-03-05T08:47:31;19.27;;;10.77;;
10471;SDS011;5283;48.876;8.962;2023-03-05T08:49:58;20.83;;;11.83;;
10471;SDS011;5283;48.876;8.962;2023-03-05T08:52:25;19.53;;;11.20;;
10471;SDS011;5283;48.876;8.962;2023-03-05T08:54:52;17.60;;;11.10;;
10471;SDS011;5283;48.876;8.962;2023-03-05T08:57:19;17.90;;;10.67;;
10471;SDS011;5283;48.876;8.962;2023-03-05T08:59:46;18.73;;;11.20;;
10471;SDS011;5283;48.876;8.962;2023-03-05T09:02:13;17.73;;;10.83;;
10471;SDS011;5283;48.876;8.962;2023-03-05T09:04:40;21.27;;;10.90;;
10471;SDS011;5283;48.876;8.962;2023-03-05T09:07:06;19.73;;;11.60;;
10471;SDS011;5283;48.876;8.962;2023-03-05T09:09:34;25.33;;;12.67;;
10471;SDS011;5283;48.876;8.962;2023-03-05T09:12:02;23.03;;;11.73;;
10471;SDS011;5283;48.876;8.962;2023-03-05T09:14:28;18.00;;;11.30;;
10471;SDS011;5283;48.876;8.962;2023-03-05T09:16:55;21.43;;;11.60;;
10471;SDS011;5283;48.876;8.962;2023-03-05T09:19:24;16.77;;;10.50;;
10471;SDS011;5283;48.876;8.962;2023-03-05T09:21:52;18.00;;;10.37;;
10471;SDS011;5283;48.876;8.962;2023-03-05T09:24:22;18.33;;;10.90;;
10471;SDS011;5283;48.876;8.962;2023-03-05T09:26:48;17.03;;;10.87;;
10471;SDS011;5283;48.876;8.962;2023-03-05T09:29:15;23.80;;;11.27;;
10471;SDS011;5283;48.876;8.962;2023-03-05T09:31:42;20.40;;;11.27;;
10471;SDS011;5283;48.876;8.962;2023-03-05T09:34:09;18.63;;;11.20;;
10471;SDS011;5283;48.876;8.962;2023-03-05T09:36:37;19.37;;;10.27;;
10471;SDS011;5283;48.876;8.962;2023-03-05T09:39:03;17.13;;;11.03;;
10471;SDS011;5283;48.876;8.962;2023-03-05T09:50:02;21.03;;;11.33;;
10471;SDS011;5283;48.876;8.962;2023-03-05T09:53:12;21.10;;;12.03;;
10471;SDS011;5283;48.876;8.962;2023-03-05T09:58:15;19.83;;;12.17;;
10471;SDS011;5283;48.876;8.962;2023-03-05T10:06:24;18.57;;;11.93;;
10471;SDS011;5283;48.876;8.962;2023-03-05T10:14:26;21.43;;;12.27;;
10471;SDS011;5283;48.876;8.962;2023-03-05T10:17:09;18.30;;;11.53;;
10471;SDS011;5283;48.876;8.962;2023-03-05T10:26:12;23.00;;;13.50;;
10471;SDS011;5283;48.876;8.962;2023-03-05T10:28:41;21.67;;;12.50;;
10471;SDS011;5283;48.876;8.962;2023-03-05T10:36:57;22.57;;;13.97;;
10471;SDS011;5283;48.876;8.962;2023-03-05T10:39:38;24.40;;;13.83;;
10471;SDS011;5283;48.876;8.962;2023-03-05T10:42:13;20.30;;;12.80;;
10471;SDS011;5283;48.876;8.962;2023-03-05T10:44:49;26.10;;;14.67;;
10471;SDS011;5283;48.876;8.962;2023-03-05T10:47:21;23.30;;;12.87;;
10471;SDS011;5283;48.876;8.962;2023-03-05T10:49:55;22.67;;;12.60;;
10471;SDS011;5283;48.876;8.962;2023-03-05T10:52:44;25.50;;;13.73;;
10471;SDS011;5283;48.876;8.962;2023-03-05T10:55:14;28.27;;;15.03;;
10471;SDS011;5283;48.876;8.962;2023-03-05T10:57:42;23.27;;;13.97;;
10471;SDS011;5283;48.876;8.962;2023-03-05T11:03:01;22.07;;;14.20;;
10471;SDS011;5283;48.876;8.962;2023-03-05T11:05:40;20.77;;;13.90;;
10471;SDS011;5283;48.876;8.962;2023-03-05T11:08:26;23.53;;;14.10;;
10471;SDS011;5283;48.876;8.962;2023-03-05T11:13:30;20.53;;;13.30;;
10471;SDS011;5283;48.876;8.962;2023-03-05T11:16:01;18.27;;;11.90;;
10471;SDS011;5283;48.876;8.962;2023-03-05T11:18:33;19.27;;;12.00;;
10471;SDS011;5283;48.876;8.962;2023-03-05T11:21:10;20.93;;;12.50;;
10471;SDS011;5283;48.876;8.962;2023-03-05T11:24:14;20.97;;;12.60;;
10471;SDS011;5283;48.876;8.962;2023-03-05T11:26:45;15.70;;;9.93;;
10471;SDS011;5283;48.876;8.962;2023-03-05T11:29:17;16.87;;;10.97;;
10471;SDS011;5283;48.876;8.962;2023-03-05T11:31:47;17.03;;;12.07;;
10471;SDS011;5283;48.876;8.962;2023-03-05T11:39:19;18.60;;;11.43;;
10471;SDS011;5283;48.876;8.962;2023-03-05T11:42:00;16.53;;;10.37;;
10471;SDS011;5283;48.876;8.962;2023-03-05T11:44:39;16.13;;;10.03;;
10471;SDS011;5283;48.876;8.962;2023-03-05T11:47:24;14.53;;;10.37;;
10471;SDS011;5283;48.876;8.962;2023-03-05T11:49:59;16.50;;;10.90;;
10471;SDS011;5283;48.876;8.962;2023-03-05T11:52:47;19.67;;;11.90;;
10471;SDS011;5283;48.876;8.962;2023-03-05T11:57:52;15.50;;;10.03;;
10471;SDS011;5283;48.876;8.962;2023-03-05T12:00:31;15.53;;;9.93;;
10471;SDS011;5283;48.876;8.962;2023-03-05T12:03:01;14.90;;;9.80;;
10471;SDS011;5283;48.876;8.962;2023-03-05T12:05:33;18.80;;;11.27;;
10471;SDS011;5283;48.876;8.962;2023-03-05T12:08:00;17.50;;;10.57;;
10471;SDS011;5283;48.876;8.962;2023-03-05T12:10:28;17.73;;;10.83;;
10471;SDS011;5283;48.876;8.962;2023-03-05T12:18:47;15.00;;;9.57;;
10471;SDS011;5283;48.876;8.962;2023-03-05T12:23:58;13.97;;;10.17;;
10471;SDS011;5283;48.876;8.962;2023-03-05T12:34:55;16.83;;;10.53;;
10471;SDS011;5283;48.876;8.962;2023-03-05T12:39:56;17.37;;;10.87;;
10471;SDS011;5283;48.876;8.962;2023-03-05T12:42:43;14.50;;;10.43;;
10471;SDS011;5283;48.876;8.962;2023-03-05T12:47:42;16.77;;;11.30;;
10471;SDS011;5283;48.876;8.962;2023-03-05T12:52:53;17.73;;;10.77;;
10471;SDS011;5283;48.876;8.962;2023-03-05T12:57:55;20.03;;;11.30;;
10471;SDS011;5283;48.876;8.962;2023-03-05T13:00:29;17.00;;;11.07;;
10471;SDS011;5283;48.876;8.962;2023-03-05T13:03:07;17.60;;;10.83;;
10471;SDS011;5283;48.876;8.962;2023-03-05T13:05:37;17.63;;;11.10;;
10471;SDS011;5283;48.876;8.962;2023-03-05T13:08:11;18.20;;;11.27;;
10471;SDS011;5283;48.876;8.962;2023-03-05T13:11:04;19.03;;;10.80;;
10471;SDS011;5283;48.876;8.962;2023-03-05T13:13:42;17.90;;;11.37;;
10471;SDS011;5283;48.876;8.962;2023-03-05T13:16:17;17.57;;;10.40;;
10471;SDS011;5283;48.876;8.962;2023-03-05T13:18:50;18.20;;;11.43;;
10471;SDS011;5283;48.876;8.962;2023-03-05T13:21:19;16.77;;;11.03;;
10471;SDS011;5283;48.876;8.962;2023-03-05T13:23:51;17.80;;;11.23;;
10471;SDS011;5283;48.876;8.962;2023-03-05T13:26:25;19.83;;;11.77;;
10471;SDS011;5283;48.876;8.962;2023-03-05T13:31:34;21.27;;;12.27;;
10471;SDS011;5283;48.876;8.962;2023-03-05T13:34:19;20.20;;;12.27;;
10471;SDS011;5283;48.876;8.962;2023-03-05T13:36:53;20.07;;;12.90;;
10471;SDS011;5283;48.876;8.962;2023-03-05T13:39:24;23.10;;;12.50;;
10471;SDS011;5283;48.876;8.962;2023-03-05T13:41:54;20.17;;;12.70;;
10471;SDS011;5283;48.876;8.962;2023-03-05T13:44:23;19.27;;;12.93;;
10471;SDS011;5283;48.876;8.962;2023-03-05T13:46:49;22.20;;;12.93;;
10471;SDS011;5283;48.876;8.962;2023-03-05T13:49:17;21.80;;;13.77;;
10471;SDS011;5283;48.876;8.962;2023-03-05T13:55:32;20.63;;;13.17;;
10471;SDS011;5283;48.876;8.962;2023-03-05T13:57:59;21.97;;;13.47;;
10471;SDS011;5283;48.876;8.962;2023-03-05T14:00:33;20.73;;;12.93;;
10471;SDS011;5283;48.876;8.962;2023-03-05T14:03:07;22.13;;;13.27;;
10471;SDS011;5283;48.876;8.962;2023-03-05T14:05:41;22.80;;;13.73;;
10471;SDS011;5283;48.876;8.962;2023-03-05T14:08:20;22.87;;;13.43;;
10471;SDS011;5283;48.876;8.962;2023-03-05T14:10:49;24.83;;;13.97;;
10471;SDS011;5283;48.876;8.962;2023-03-05T14:13:18;23.97;;;14.13;;
10471;SDS011;5283;48.876;8.962;2023-03-05T14:18:32;22.77;;;13.87;;
10471;SDS011;5283;48.876;8.962;2023-03-05T14:26:44;22.53;;;14.37;;
10471;SDS011;5283;48.876;8.962;2023-03-05T14:28:55;22.03;;;13.87;;
10471;SDS011;5283;48.876;8.962;2023-03-05T14:34:26;22.93;;;13.90;;
10471;SDS011;5283;48.876;8.962;2023-03-05T14:36:58;23.03;;;14.33;;
10471;SDS011;5283;48.876;8.962;2023-03-05T14:42:28;23.63;;;14.90;;
10471;SDS011;5283;48.876;8.962;2023-03-05T14:45:11;22.27;;;14.60;;
10471;SDS011;5283;48.876;8.962;2023-03-05T14:47:42;21.50;;;14.03;;
10471;SDS011;5283;48.876;8.962;2023-03-05T14:50:13;22.23;;;14.23;;
10471;SDS011;5283;48.876;8.962;2023-03-05T14:52:48;23.60;;;14.40;;
10471;SDS011;5283;48.876;8.962;2023-03-05T14:55:19;23.77;;;14.10;;
10471;SDS011;5283;48.876;8.962;2023-03-05T14:57:48;23.20;;;13.83;;
10471;SDS011;5283;48.876;8.962;2023-03-05T15:00:20;25.07;;;13.93;;
10471;SDS011;5283;48.876;8.962;2023-03-05T15:02:49;21.80;;;13.90;;
10471;SDS011;5283;48.876;8.962;2023-03-05T15:05:16;23.50;;;14.37;;
10471;SDS011;5283;48.876;8.962;2023-03-05T15:07:44;27.43;;;13.60;;
10471;SDS011;5283;48.876;8.962;2023-03-05T15:10:15;25.73;;;14.30;;
10471;SDS011;5283;48.876;8.962;2023-03-05T15:12:44;22.03;;;13.93;;
10471;SDS011;5283;48.876;8.962;2023-03-05T15:15:14;20.93;;;14.10;;
10471;SDS011;5283;48.876;8.962;2023-03-05T15:17:44;20.43;;;13.70;;
10471;SDS011;5283;48.876;8.962;2023-03-05T15:20:18;21.03;;;14.33;;
10471;SDS011;5283;48.876;8.962;2023-03-05T15:22:54;24.53;;;14.90;;
10471;SDS011;5283;48.876;8.962;2023-03-05T15:25:22;21.90;;;14.00;;
10471;SDS011;5283;48.876;8.962;2023-03-05T15:27:50;19.70;;;13.77;;
10471;SDS011;5283;48.876;8.962;2023-03-05T15:32:53;24.73;;;14.60;;
10471;SDS011;5283;48.876;8.962;2023-03-05T15:35:21;25.30;;;14.77;;
10471;SDS011;5283;48.876;8.962;2023-03-05T15:37:49;21.90;;;14.10;;
10471;SDS011;5283;48.876;8.962;2023-03-05T15:40:17;22.60;;;13.53;;
10471;SDS011;5283;48.876;8.962;2023-03-05T15:42:44;20.57;;;14.30;;
10471;SDS011;5283;48.876;8.962;2023-03-05T15:45:11;21.97;;;13.83;;
10471;SDS011;5283;48.876;8.962;2023-03-05T15:47:37;21.50;;;13.60;;
10471;SDS011;5283;48.876;8.962;2023-03-05T15:50:04;20.73;;;13.73;;
10471;SDS011;5283;48.876;8.962;2023-03-05T15:52:32;24.80;;;14.47;;
10471;SDS011;5283;48.876;8.962;2023-03-05T15:54:59;23.53;;;14.63;;
10471;SDS011;5283;48.876;8.962;2023-03-05T15:57:27;25.07;;;14.00;;
10471;SDS011;5283;48.876;8.962;2023-03-05T15:59:54;21.63;;;13.93;;
10471;SDS011;5283;48.876;8.962;2023-03-05T16:02:21;22.73;;;13.13;;
10471;SDS011;5283;48.876;8.962;2023-03-05T16:04:49;22.30;;;13.40;;
10471;SDS011;5283;48.876;8.962;2023-03-05T16:07:16;22.77;;;13.83;;
10471;SDS011;5283;48.876;8.962;2023-03-05T16:09:44;21.83;;;13.70;;
10471;SDS011;5283;48.876;8.962;2023-03-05T16:12:15;22.33;;;13.70;;
10471;SDS011;5283;48.876;8.962;2023-03-05T16:14:49;22.77;;;13.80;;
10471;SDS011;5283;48.876;8.962;2023-03-05T16:17:17;24.30;;;14.40;;
10471;SDS011;5283;48.876;8.962;2023-03-05T16:19:46;23.70;;;14.77;;
10471;SDS011;5283;48.876;8.962;2023-03-05T16:22:15;23.33;;;14.33;;
10471;SDS011;5283;48.876;8.962;2023-03-05T16:24:42;22.03;;;13.90;;
10471;SDS011;5283;48.876;8.962;2023-03-05T16:27:09;21.07;;;14.20;;
10471;SDS011;5283;48.876;8.962;2023-03-05T16:29:36;21.10;;;13.90;;